सभी
Flugplatz Höxter-Holzminden Airport EDVI मौसम
There is no TAF data available at EDVI. Showing TAF data for EDVK (28 mi S).
KSF Terminal Area Forecast (no data for EDVI)
| Date | Time (CEST) | Flight Rules | Wind Dir. | Speed | Type | Height AGL (ft) | Visibility | Remarks | ||||||
|---|---|---|---|---|---|---|---|---|---|---|---|---|---|---|
There is no METAR data available at EDVI. Showing METAR data for EDVK (28 mi S).
Recent KSF METAR history (no data for EDVI)
| Date | Time (CEST) | Flight Rules | Wind Dir. | Speed | Type | Height AGL (ft) | Visibility | Temp (°C) | Temp (°F) | Dew Point (°C) | Dew Point (°F) | Rel. Humid. | Pressure | Density Altitude | Remarks |
|---|---|---|---|---|---|---|---|---|---|---|---|---|---|---|---|
| 03-मई | 05:20 | VFR | Variable | 2 kt | 10000 meters | 10° | 50° | 7° | 44° | 82% | 1013 mb | 314 ft | |||
| 03-मई | 04:50 | VFR | 100° | 2 kt | 10000 meters | 10° | 50° | 6° | 42° | 76% | 1014 mb | 285 ft | |||
| 03-मई | 04:20 | VFR | Variable | 2 kt | 10000 meters | 11° | 51° | 7° | 44° | 76% | 1014 mb | 405 ft | |||
| 03-मई | 03:50 | VFR | 150° | 6 kt | 10000 meters | 12° | 53° | 7° | 44° | 71% | 1014 mb | 525 ft | |||
| 03-मई | 03:20 | VFR | 150° | 2 kt | 10000 meters | 12° | 53° | 7° | 44° | 71% | 1014 mb | 525 ft | |||
| 03-मई | 02:50 | VFR | Variable | 2 kt | 10000 meters | 12° | 53° | 7° | 44° | 71% | 1014 mb | 525 ft | |||
| 03-मई | 02:20 | VFR | Variable | 2 kt | 10000 meters | 13° | 55° | 7° | 44° | 67% | 1015 mb | 615 ft | |||
| 03-मई | 01:50 | VFR | Variable | 2 kt | 10000 meters | 14° | 57° | 6° | 42° | 58% | 1015 mb | 735 ft | |||
| 03-मई | 01:20 | VFR | 300° | 4 kt | 10000 meters | 14° | 57° | 7° | 44° | 63% | 1015 mb | 735 ft | |||
| 03-मई | 00:50 | VFR | Variable | 3 kt | 10000 meters | 16° | 60° | 6° | 42° | 51% | 1015 mb | 975 ft | |||
| 03-मई | 00:20 | VFR | Variable | 2 kt | 10000 meters | 15° | 59° | 7° | 44° | 59% | 1015 mb | 855 ft | |||
| 02-मई | 23:50 | VFR | 150° | 4 kt | 10000 meters | 16° | 60° | 6° | 42° | 51% | 1015 mb | 975 ft | |||
| 02-मई | 23:20 | VFR | Variable | 2 kt | 10000 meters | 16° | 60° | 7° | 44° | 55% | 1015 mb | 975 ft | |||
| 02-मई | 22:50 | VFR | 140° | 3 kt | 10000 meters | 16° | 60° | 6° | 42° | 51% | 1015 mb | 975 ft | |||
| 02-मई | 22:20 | VFR | 170° | 3 kt | 10000 meters | 19° | 66° | 6° | 42° | 43% | 1015 mb | 1,335 ft | |||
| 02-मई | 21:50 | VFR | 180° | 4 kt | 10000 meters | 19° | 66° | 6° | 42° | 43% | 1015 mb | 1,335 ft | |||
| 02-मई | 21:20 | VFR | 180° | 4 kt | 10000 meters | 20° | 68° | 5° | 41° | 37% | 1015 mb | 1,455 ft | |||
| 02-मई | 20:50 | VFR | 170° | 3 kt | 10000 meters | 19° | 66° | 6° | 42° | 43% | 1015 mb | 1,335 ft | |||
| 02-मई | 20:20 | VFR | 190° | 4 kt | 10000 meters | 21° | 69° | 6° | 42° | 38% | 1015 mb | 1,575 ft | |||
| 02-मई | 19:50 | VFR | 180° | 5 kt | 10000 meters | 22° | 71° | 6° | 42° | 35% | 1015 mb | 1,695 ft | |||
| 02-मई | 19:20 | VFR | 180° | 8 kt | 10000 meters | 23° | 73° | 4° | 39° | 29% | 1015 mb | 1,815 ft | |||
| 02-मई | 18:50 | VFR | 180° | 7 kt | 10000 meters | 24° | 75° | 4° | 39° | 27% | 1016 mb | 1,906 ft | |||
| 02-मई | 18:20 | VFR | 190° | 7 kt | Few |
15,000 |
10000 meters |
24° | 75° | 4° | 39° | 27% | 1016 mb | 1,906 ft | |
| 02-मई | 17:50 | VFR | 190° | 7 kt | Clouds and visibility are OK. | >= 10 km | 24° | 75° | 6° | 42° | 31% | 1016 mb | 1,906 ft |
लॉगिन
| Your browser is unsupported. अपना ब्राऊजर अपग्रेड करें |
